Time;durP1;ratioP1;P1;durP2;ratioP2;P2;SDS_P1;SDS_P2;PMS_P1;PMS_P2;Temp;Humidity;BMP_temperature;BMP_pressure;BME280_temperature;BME280_humidity;BME280_pressure;Samples;Min_cycle;Max_cycle;Signal;HPM_P1;HPM_P2
2023/12/27 08:24:30;;;;;;;10.77;2.65;;;;;;;;;;2101064;27;20884;-65
2023/12/27 08:25:31;;;;;;;5.07;2.70;;;;;;;;;;2085880;28;20189;-65
2023/12/27 08:26:33;;;;;;;20.20;5.10;;;;;;;;;;2085886;28;20623;-68
2023/12/27 08:27:34;;;;;;;8.75;2.97;;;;;;;;;;2085793;28;20200;-68
2023/12/27 08:28:36;;;;;;;8.52;2.63;;;;;;;;;;2085486;28;20201;-68
2023/12/27 08:40:22;;;;;;;11.57;2.50;;;;;;;;;;2098929;27;20578;-68
2023/12/27 08:41:24;;;;;;;7.22;3.17;;;;;;;;;;2098903;28;20682;-69
2023/12/27 08:42:26;;;;;;;10.02;2.90;;;;;;;;;;2098595;28;20207;-69
2023/12/27 08:48:15;;;;;;;6.63;2.50;;;;;;;;;;2119384;27;20549;-65
2023/12/27 08:49:17;;;;;;;4.60;2.70;;;;;;;;;;2118960;27;20284;-67
2023/12/27 08:50:18;;;;;;;6.78;2.40;;;;;;;;;;2090946;28;20216;-67
2023/12/27 08:51:20;;;;;;;10.00;2.65;;;;;;;;;;2088145;28;20200;-68
2023/12/27 08:52:21;;;;;;;7.35;2.28;;;;;;;;;;2086451;28;20199;-68
2023/12/27 08:53:23;;;;;;;9.32;2.40;;;;;;;;;;2086775;28;20205;-67
2023/12/27 08:54:25;;;;;;;9.05;2.45;;;;;;;;;;2086607;28;20195;-68
2023/12/27 08:55:26;;;;;;;6.47;2.25;;;;;;;;;;2094951;28;20202;-67
2023/12/27 08:56:28;;;;;;;8.65;2.50;;;;;;;;;;2091646;28;20203;-68
2023/12/27 08:57:29;;;;;;;5.25;1.85;;;;;;;;;;2094394;28;20956;-68
2023/12/27 08:58:34;;;;;;;8.77;2.20;;;;;;;;;;2094522;28;20639;-68
2023/12/27 08:59:35;;;;;;;5.00;2.00;;;;;;;;;;2093795;28;20670;-69
2023/12/27 09:00:36;;;;;;;10.82;2.25;;;;;;;;;;2095277;28;20199;-68
2023/12/27 09:01:38;;;;;;;4.97;1.95;;;;;;;;;;2094631;28;20202;-68
2023/12/27 09:02:39;;;;;;;5.25;2.70;;;;;;;;;;2094771;28;20203;-68
2023/12/27 09:03:41;;;;;;;7.32;2.20;;;;;;;;;;2094920;28;20295;-68
2023/12/27 09:04:43;;;;;;;7.45;2.80;;;;;;;;;;2094095;28;20606;-69
2023/12/27 09:05:45;;;;;;;5.88;2.95;;;;;;;;;;2095005;28;20235;-68
2023/12/27 09:06:46;;;;;;;6.47;2.60;;;;;;;;;;2094728;28;20791;-68
2023/12/27 09:07:47;;;;;;;7.20;2.10;;;;;;;;;;2094192;28;20208;-68
2023/12/27 09:08:49;;;;;;;5.90;2.55;;;;;;;;;;2094784;28;20192;-68
2023/12/27 09:09:50;;;;;;;11.27;3.67;;;;;;;;;;2094000;28;20592;-68
2023/12/27 09:10:52;;;;;;;14.90;3.00;;;;;;;;;;2094771;28;20223;-69
2023/12/27 09:11:53;;;;;;;7.20;2.40;;;;;;;;;;2095126;28;20192;-69
2023/12/27 09:12:55;;;;;;;6.35;2.25;;;;;;;;;;2094996;28;20271;-68
2023/12/27 09:13:57;;;;;;;4.50;1.90;;;;;;;;;;2094861;28;20184;-68
2023/12/27 09:14:58;;;;;;;9.38;2.72;;;;;;;;;;2093337;28;20618;-69
2023/12/27 09:16:02;;;;;;;5.18;2.40;;;;;;;;;;2094535;28;20217;-68
2023/12/27 09:17:04;;;;;;;6.70;2.53;;;;;;;;;;2094918;28;20206;-69
2023/12/27 09:18:05;;;;;;;6.18;2.17;;;;;;;;;;2094683;28;20277;-69
2023/12/27 09:19:07;;;;;;;6.72;2.13;;;;;;;;;;2096542;28;20213;-69
2023/12/27 09:20:09;;;;;;;5.55;2.40;;;;;;;;;;2094243;28;20215;-69
2023/12/27 09:21:11;;;;;;;4.70;2.20;;;;;;;;;;2094127;28;20283;-69
2023/12/27 09:22:12;;;;;;;5.88;2.20;;;;;;;;;;2094531;28;20199;-69
2023/12/27 09:23:14;;;;;;;6.88;2.15;;;;;;;;;;2096677;28;20188;-69
2023/12/27 09:24:15;;;;;;;9.40;2.60;;;;;;;;;;2094143;28;20199;-69
2023/12/27 09:25:17;;;;;;;5.40;2.35;;;;;;;;;;2094007;28;20212;-69
2023/12/27 09:26:18;;;;;;;4.78;2.00;;;;;;;;;;2094824;28;20689;-69
2023/12/27 09:27:20;;;;;;;7.22;2.22;;;;;;;;;;2094745;28;20236;-69
2023/12/27 09:28:25;;;;;;;4.80;1.65;;;;;;;;;;2094856;28;20204;-69
2023/12/27 09:29:27;;;;;;;5.80;2.17;;;;;;;;;;2092935;28;20283;-67
2023/12/27 09:30:28;;;;;;;7.10;2.05;;;;;;;;;;2094844;28;20662;-67
2023/12/27 09:31:30;;;;;;;6.95;2.10;;;;;;;;;;2094696;28;20650;-67
2023/12/27 09:32:32;;;;;;;9.68;3.00;;;;;;;;;;2094873;28;20200;-67
2023/12/27 09:33:33;;;;;;;6.55;2.10;;;;;;;;;;2094493;28;20218;-67
2023/12/27 09:34:35;;;;;;;12.57;3.55;;;;;;;;;;2093660;28;20200;-67
2023/12/27 09:35:37;;;;;;;4.70;1.45;;;;;;;;;;2094667;28;20265;-68
2023/12/27 09:36:38;;;;;;;3.92;2.08;;;;;;;;;;2094683;28;20230;-68
2023/12/27 09:37:40;;;;;;;4.00;1.35;;;;;;;;;;2094781;28;20203;-67
2023/12/27 09:38:41;;;;;;;4.65;1.50;;;;;;;;;;2093777;28;20191;-67
2023/12/27 09:39:43;;;;;;;5.65;1.65;;;;;;;;;;2094068;28;20228;-67
2023/12/27 09:40:45;;;;;;;6.13;1.65;;;;;;;;;;2091701;28;20199;-67
2023/12/27 09:41:46;;;;;;;4.75;1.50;;;;;;;;;;2095042;28;20668;-67
2023/12/27 09:42:52;;;;;;;4.50;1.52;;;;;;;;;;2095416;28;20192;-68
2023/12/27 09:43:54;;;;;;;4.55;1.50;;;;;;;;;;2094574;28;20231;-68
2023/12/27 09:45:00;;;;;;;4.68;1.63;;;;;;;;;;2093899;28;20219;-69
2023/12/27 09:46:02;;;;;;;4.38;1.83;;;;;;;;;;2094432;28;20188;-69
2023/12/27 09:47:04;;;;;;;3.22;1.60;;;;;;;;;;2094340;28;20203;-69
2023/12/27 09:48:08;;;;;;;5.10;1.70;;;;;;;;;;2094389;28;20259;-69
2023/12/27 09:49:15;;;;;;;5.38;2.05;;;;;;;;;;2102047;28;20191;-68
2023/12/27 09:50:16;;;;;;;5.00;1.95;;;;;;;;;;2100065;28;20215;-69
2023/12/27 09:51:23;;;;;;;2.85;1.50;;;;;;;;;;2097211;28;20192;-69
2023/12/27 09:52:26;;;;;;;4.20;1.70;;;;;;;;;;2095094;28;20279;-69
2023/12/27 09:53:27;;;;;;;8.30;3.58;;;;;;;;;;2094581;28;20662;-69
2023/12/27 09:54:29;;;;;;;4.35;1.77;;;;;;;;;;2096596;28;20188;-70
2023/12/27 09:55:30;;;;;;;3.28;1.48;;;;;;;;;;2095546;28;20630;-69
2023/12/27 09:56:32;;;;;;;5.63;1.40;;;;;;;;;;2090362;28;20196;-69
2023/12/27 09:57:35;;;;;;;4.82;1.40;;;;;;;;;;2079870;28;20208;-69
2023/12/27 09:58:37;;;;;;;5.22;1.67;;;;;;;;;;2093707;28;20804;-68
2023/12/27 09:59:41;;;;;;;9.50;2.25;;;;;;;;;;2088085;28;20253;-69
2023/12/27 10:00:45;;;;;;;6.90;2.20;;;;;;;;;;2088910;28;20870;-69
2023/12/27 10:01:50;;;;;;;3.83;1.58;;;;;;;;;;2088920;28;20207;-69
2023/12/27 10:02:58;;;;;;;3.58;1.30;;;;;;;;;;2091674;28;20666;-69
2023/12/27 10:04:04;;;;;;;6.05;1.20;;;;;;;;;;2092904;28;20287;-70
2023/12/27 10:05:18;;;;;;;4.88;1.48;;;;;;;;;;2069091;28;20578;-70
2023/12/27 10:06:20;;;;;;;6.15;2.20;;;;;;;;;;2088017;28;20242;-69
2023/12/27 10:07:22;;;;;;;6.65;1.50;;;;;;;;;;2088967;28;20283;-70
2023/12/27 10:08:24;;;;;;;2.53;1.33;;;;;;;;;;2088838;28;20521;-70
2023/12/27 10:09:25;;;;;;;3.90;1.40;;;;;;;;;;2088991;28;20228;-70
2023/12/27 10:10:28;;;;;;;3.10;1.38;;;;;;;;;;2087954;28;20315;-69
2023/12/27 10:11:30;;;;;;;3.47;1.48;;;;;;;;;;2088799;28;20239;-69
2023/12/27 10:12:35;;;;;;;4.47;1.42;;;;;;;;;;2088809;28;20232;-69
2023/12/27 10:13:38;;;;;;;3.38;1.73;;;;;;;;;;2090523;28;20219;-69
2023/12/27 10:14:39;;;;;;;5.03;1.40;;;;;;;;;;2090191;28;20200;-70
2023/12/27 10:15:41;;;;;;;6.22;1.70;;;;;;;;;;2088917;28;20193;-71
2023/12/27 10:16:42;;;;;;;4.38;1.20;;;;;;;;;;2088875;28;20633;-71
2023/12/27 10:17:44;;;;;;;7.10;1.55;;;;;;;;;;2088841;28;20245;-69
2023/12/27 10:18:46;;;;;;;4.70;1.50;;;;;;;;;;2091743;28;20679;-71
2023/12/27 10:19:48;;;;;;;7.63;1.55;;;;;;;;;;2091117;28;20227;-71
2023/12/27 10:20:50;;;;;;;6.00;1.55;;;;;;;;;;2089159;28;20207;-71
2023/12/27 10:21:52;;;;;;;5.85;1.80;;;;;;;;;;2088347;28;20193;-71
2023/12/27 10:22:54;;;;;;;4.32;1.73;;;;;;;;;;2088821;28;20283;-71
2023/12/27 10:24:02;;;;;;;6.15;1.77;;;;;;;;;;2089002;28;20204;-71
2023/12/27 10:25:07;;;;;;;5.25;1.90;;;;;;;;;;2073803;28;20219;-70
2023/12/27 10:26:09;;;;;;;7.03;2.15;;;;;;;;;;2088096;28;20208;-70
2023/12/27 10:27:13;;;;;;;3.47;1.50;;;;;;;;;;2089657;28;20208;-70
2023/12/27 10:28:24;;;;;;;4.20;1.50;;;;;;;;;;2087683;28;20845;-70
2023/12/27 10:29:26;;;;;;;5.32;1.65;;;;;;;;;;2088520;28;20276;-70
2023/12/27 10:30:27;;;;;;;8.63;1.90;;;;;;;;;;2084851;28;20224;-70
2023/12/27 10:31:29;;;;;;;4.00;1.77;;;;;;;;;;2087874;28;20258;-70
2023/12/27 10:32:31;;;;;;;3.90;1.55;;;;;;;;;;2079969;28;20213;-71
2023/12/27 10:33:42;;;;;;;5.60;1.55;;;;;;;;;;2080543;28;20216;-70
2023/12/27 10:34:44;;;;;;;2.95;1.60;;;;;;;;;;2045707;28;20193;-70
2023/12/27 10:35:47;;;;;;;3.65;1.33;;;;;;;;;;2087757;28;20219;-71
2023/12/27 10:36:51;;;;;;;6.65;1.55;;;;;;;;;;2090224;28;20189;-70
2023/12/27 10:38:04;;;;;;;4.45;1.30;;;;;;;;;;2091168;28;20256;-71
2023/12/27 10:39:06;;;;;;;7.00;1.60;;;;;;;;;;2087038;28;20219;-70
2023/12/27 10:40:08;;;;;;;4.35;1.17;;;;;;;;;;2075942;28;20224;-70
2023/12/27 10:41:09;;;;;;;6.22;1.38;;;;;;;;;;2089320;28;20231;-70
2023/12/27 10:42:13;;;;;;;2.95;1.33;;;;;;;;;;2091169;28;20200;-70
2023/12/27 10:43:14;;;;;;;8.20;1.60;;;;;;;;;;2088051;28;20205;-70
2023/12/27 10:44:17;;;;;;;4.82;1.85;;;;;;;;;;2088327;28;20219;-71
2023/12/27 10:45:20;;;;;;;5.32;1.60;;;;;;;;;;2078558;28;20220;-71
2023/12/27 10:46:22;;;;;;;4.45;2.10;;;;;;;;;;2081189;28;20609;-71
2023/12/27 10:47:26;;;;;;;3.30;1.20;;;;;;;;;;2079539;28;20280;-71
2023/12/27 10:48:29;;;;;;;5.90;1.90;;;;;;;;;;2079458;28;20692;-71
2023/12/27 10:49:31;;;;;;;6.47;1.40;;;;;;;;;;2079843;28;20193;-68
2023/12/27 10:50:34;;;;;;;5.63;1.70;;;;;;;;;;2087669;28;20354;-70
2023/12/27 10:51:38;;;;;;;3.10;1.20;;;;;;;;;;2091714;28;20208;-71
2023/12/27 10:52:41;;;;;;;6.60;1.55;;;;;;;;;;2088002;28;20193;-71
2023/12/27 10:53:47;;;;;;;7.47;1.60;;;;;;;;;;2088363;28;20207;-71
2023/12/27 10:54:50;;;;;;;4.00;1.27;;;;;;;;;;2091189;28;20200;-71
2023/12/27 10:55:52;;;;;;;6.70;1.50;;;;;;;;;;2089927;28;20233;-71
2023/12/27 10:56:58;;;;;;;3.33;1.02;;;;;;;;;;2088976;28;20258;-71
2023/12/27 10:58:01;;;;;;;7.53;1.30;;;;;;;;;;2087468;28;20901;-70
2023/12/27 10:59:06;;;;;;;2.42;1.00;;;;;;;;;;2087860;28;20188;-70
2023/12/27 11:00:08;;;;;;;6.05;1.10;;;;;;;;;;2092273;28;20302;-70
2023/12/27 11:01:10;;;;;;;2.70;1.30;;;;;;;;;;2091643;28;20203;-70
2023/12/27 11:02:12;;;;;;;2.10;1.13;;;;;;;;;;2088368;28;20207;-71
2023/12/27 11:03:14;;;;;;;3.10;1.20;;;;;;;;;;2084954;28;20207;-70
2023/12/27 11:04:27;;;;;;;3.30;1.10;;;;;;;;;;2087674;28;20560;-70
2023/12/27 11:05:30;;;;;;;2.20;1.10;;;;;;;;;;2063908;28;20219;-70
2023/12/27 11:06:34;;;;;;;2.75;1.20;;;;;;;;;;2088321;28;20298;-70
2023/12/27 11:07:40;;;;;;;3.05;1.27;;;;;;;;;;2088397;28;20185;-70
2023/12/27 11:08:43;;;;;;;3.53;1.30;;;;;;;;;;2088408;28;20192;-70
2023/12/27 11:09:45;;;;;;;3.70;1.83;;;;;;;;;;2087658;28;20225;-70
2023/12/27 11:10:48;;;;;;;2.70;1.30;;;;;;;;;;2087898;28;20192;-68
2023/12/27 11:11:50;;;;;;;2.20;1.20;;;;;;;;;;2087605;28;20686;-68
2023/12/27 11:12:53;;;;;;;2.33;1.15;;;;;;;;;;2087844;28;20661;-68
2023/12/27 11:13:56;;;;;;;7.43;1.92;;;;;;;;;;2095661;28;20732;-68
2023/12/27 11:14:58;;;;;;;3.17;1.20;;;;;;;;;;2085651;28;20197;-68
2023/12/27 11:16:00;;;;;;;2.92;1.25;;;;;;;;;;2088053;28;20687;-68
2023/12/27 11:17:05;;;;;;;4.15;1.30;;;;;;;;;;2086602;28;20189;-71
2023/12/27 11:18:09;;;;;;;2.50;1.40;;;;;;;;;;2090951;28;20848;-68
2023/12/27 11:19:12;;;;;;;5.25;1.73;;;;;;;;;;2092076;28;20356;-68
2023/12/27 11:20:16;;;;;;;4.93;1.30;;;;;;;;;;2087959;28;20216;-68
2023/12/27 11:21:18;;;;;;;4.03;1.38;;;;;;;;;;2087728;28;20196;-70
2023/12/27 11:22:20;;;;;;;6.95;1.40;;;;;;;;;;2091007;28;20846;-67
2023/12/27 11:23:22;;;;;;;3.85;1.50;;;;;;;;;;2091191;28;20203;-68
2023/12/27 11:24:24;;;;;;;8.43;1.50;;;;;;;;;;2088244;28;20555;-67
2023/12/27 11:25:26;;;;;;;2.72;1.30;;;;;;;;;;2082559;28;20239;-69
2023/12/27 11:26:36;;;;;;;4.00;1.42;;;;;;;;;;2090622;28;20602;-69
2023/12/27 11:27:40;;;;;;;3.88;1.02;;;;;;;;;;2088117;28;20188;-69
2023/12/27 11:28:42;;;;;;;3.70;1.13;;;;;;;;;;2088315;28;20242;-69
2023/12/27 11:29:50;;;;;;;2.58;1.40;;;;;;;;;;2086172;28;20223;-69
2023/12/27 11:30:53;;;;;;;5.45;1.40;;;;;;;;;;2096342;28;20865;-69
2023/12/27 11:31:56;;;;;;;3.70;1.55;;;;;;;;;;2091240;28;20602;-70
2023/12/27 11:32:57;;;;;;;3.75;1.13;;;;;;;;;;2086659;28;20185;-70
2023/12/27 11:33:59;;;;;;;4.30;1.20;;;;;;;;;;2088056;28;20184;-70
2023/12/27 11:35:01;;;;;;;4.47;1.27;;;;;;;;;;2085827;28;20347;-70
2023/12/27 11:36:03;;;;;;;2.15;1.20;;;;;;;;;;2088327;28;20204;-70
2023/12/27 11:37:05;;;;;;;4.53;1.40;;;;;;;;;;2087785;28;20643;-70
2023/12/27 11:38:18;;;;;;;1.92;1.10;;;;;;;;;;2088236;28;20188;-70
2023/12/27 11:39:20;;;;;;;6.18;1.42;;;;;;;;;;2095762;28;20199;-70
2023/12/27 11:40:34;;;;;;;2.90;1.67;;;;;;;;;;2095409;28;20258;-70
2023/12/27 11:41:38;;;;;;;3.30;1.30;;;;;;;;;;2088353;28;20196;-70
2023/12/27 11:42:39;;;;;;;3.13;1.08;;;;;;;;;;2088072;28;20221;-71
2023/12/27 11:44:10;;;;;;;3.38;1.10;;;;;;;;;;2087992;28;20656;-70
2023/12/27 11:45:12;;;;;;;2.17;1.15;;;;;;;;;;2084403;28;20220;-70
2023/12/27 11:46:13;;;;;;;5.63;1.63;;;;;;;;;;2087852;28;20247;-70
2023/12/27 11:47:15;;;;;;;4.20;1.30;;;;;;;;;;2087121;28;20192;-69
2023/12/27 11:48:17;;;;;;;4.72;1.40;;;;;;;;;;2088422;28;20228;-70
2023/12/27 11:49:19;;;;;;;2.78;1.25;;;;;;;;;;2086706;28;20429;-69
2023/12/27 11:50:25;;;;;;;2.72;1.20;;;;;;;;;;2074984;28;20698;-70
2023/12/27 11:51:27;;;;;;;2.58;1.33;;;;;;;;;;2090480;28;20188;-70
2023/12/27 11:52:29;;;;;;;3.25;1.10;;;;;;;;;;2088066;28;20196;-69
2023/12/27 11:53:31;;;;;;;4.07;1.27;;;;;;;;;;2087296;28;20622;-69
2023/12/27 11:54:33;;;;;;;2.78;1.25;;;;;;;;;;2085542;28;20342;-69
2023/12/27 11:55:35;;;;;;;3.55;1.35;;;;;;;;;;2082851;28;20319;-69
2023/12/27 11:56:36;;;;;;;5.13;1.50;;;;;;;;;;2087817;28;20204;-70
2023/12/27 11:57:42;;;;;;;4.03;1.52;;;;;;;;;;2087771;28;20201;-70
2023/12/27 11:58:44;;;;;;;5.57;1.58;;;;;;;;;;2094383;28;20238;-69
2023/12/27 11:59:54;;;;;;;4.22;1.20;;;;;;;;;;2092773;28;20191;-69
2023/12/27 12:00:56;;;;;;;3.45;1.10;;;;;;;;;;2087497;28;20655;-70
2023/12/27 12:01:58;;;;;;;2.80;1.02;;;;;;;;;;2079288;28;20280;-70
2023/12/27 12:03:00;;;;;;;3.75;1.30;;;;;;;;;;2086692;28;20196;-70
2023/12/27 12:04:03;;;;;;;2.67;1.35;;;;;;;;;;2094905;28;20876;-70
2023/12/27 12:05:16;;;;;;;3.85;1.40;;;;;;;;;;2081328;28;21021;-70
2023/12/27 12:06:30;;;;;;;2.65;1.02;;;;;;;;;;2087993;28;20193;-69
2023/12/27 12:07:51;;;;;;;8.48;1.27;;;;;;;;;;2087782;28;20195;-70
2023/12/27 12:08:53;;;;;;;2.63;1.30;;;;;;;;;;2087237;28;20279;-70
2023/12/27 12:09:58;;;;;;;4.97;1.27;;;;;;;;;;2087358;28;20216;-70
2023/12/27 12:11:07;;;;;;;3.47;1.35;;;;;;;;;;2091639;28;20662;-69
2023/12/27 12:12:10;;;;;;;3.10;1.10;;;;;;;;;;2089579;28;20235;-69
2023/12/27 12:13:11;;;;;;;4.43;1.05;;;;;;;;;;2087916;28;20200;-69
2023/12/27 12:14:14;;;;;;;1.48;0.75;;;;;;;;;;2087828;28;20192;-69
2023/12/27 12:15:15;;;;;;;3.75;1.40;;;;;;;;;;2087232;28;20216;-69
2023/12/27 12:16:16;;;;;;;1.88;1.00;;;;;;;;;;2094186;28;20199;-69
2023/12/27 12:17:19;;;;;;;3.58;1.00;;;;;;;;;;2095372;28;20188;-69
2023/12/27 12:18:21;;;;;;;2.67;1.13;;;;;;;;;;2087929;28;20249;-69
2023/12/27 12:19:23;;;;;;;4.18;1.00;;;;;;;;;;2087932;28;20192;-69
2023/12/27 12:20:25;;;;;;;2.40;1.00;;;;;;;;;;2086215;28;20223;-69
2023/12/27 12:21:28;;;;;;;2.75;1.23;;;;;;;;;;2087924;28;20822;-69
2023/12/27 12:22:30;;;;;;;2.50;0.90;;;;;;;;;;2095212;28;20203;-70
2023/12/27 12:23:31;;;;;;;2.55;1.40;;;;;;;;;;2095188;28;20818;-70
2023/12/27 12:24:33;;;;;;;4.60;1.90;;;;;;;;;;2087861;28;20219;-69
2023/12/27 12:25:41;;;;;;;4.75;1.17;;;;;;;;;;2087461;28;20229;-69
2023/12/27 12:26:46;;;;;;;5.28;1.63;;;;;;;;;;2089477;28;20231;-69
2023/12/27 12:27:48;;;;;;;7.57;1.30;;;;;;;;;;2087879;28;20192;-70
2023/12/27 12:28:57;;;;;;;2.50;1.20;;;;;;;;;;2095118;28;20187;-70
2023/12/27 12:29:59;;;;;;;1.85;1.10;;;;;;;;;;2093639;28;20208;-66
2023/12/27 12:31:00;;;;;;;10.57;1.30;;;;;;;;;;2087500;28;20664;-67
2023/12/27 12:32:03;;;;;;;2.78;1.10;;;;;;;;;;2087941;28;20192;-67
2023/12/27 12:33:04;;;;;;;1.70;1.00;;;;;;;;;;2089795;28;20222;-67
2023/12/27 12:34:06;;;;;;;3.92;1.23;;;;;;;;;;2090157;28;20321;-66
2023/12/27 12:35:08;;;;;;;4.63;1.20;;;;;;;;;;2090227;28;20223;-66
2023/12/27 12:36:10;;;;;;;3.08;1.25;;;;;;;;;;2090334;28;20192;-67
2023/12/27 12:37:11;;;;;;;4.95;1.50;;;;;;;;;;2094337;28;20286;-66
2023/12/27 12:38:13;;;;;;;4.38;1.20;;;;;;;;;;2083323;28;20714;-66
2023/12/27 12:39:16;;;;;;;3.42;1.05;;;;;;;;;;2084130;28;20247;-67
2023/12/27 12:40:17;;;;;;;3.25;1.15;;;;;;;;;;2087227;28;20220;-66
2023/12/27 12:41:19;;;;;;;1.92;1.00;;;;;;;;;;2087888;28;20222;-67
2023/12/27 12:42:20;;;;;;;1.98;1.00;;;;;;;;;;2087896;28;20800;-72
2023/12/27 12:43:22;;;;;;;5.00;2.40;;;;;;;;;;2087284;28;20196;-72
2023/12/27 12:44:23;;;;;;;3.25;1.75;;;;;;;;;;2087584;28;20199;-73
2023/12/27 12:45:26;;;;;;;16.10;6.88;;;;;;;;;;2086734;28;20930;-73
2023/12/27 12:46:28;;;;;;;8.65;4.15;;;;;;;;;;2087702;28;20204;-71
2023/12/27 12:47:29;;;;;;;6.65;3.03;;;;;;;;;;2086435;28;20196;-68
2023/12/27 12:48:31;;;;;;;2.80;1.13;;;;;;;;;;2085635;28;20652;-68
2023/12/27 12:49:33;;;;;;;2.50;1.10;;;;;;;;;;2086357;28;20217;-67
2023/12/27 12:50:35;;;;;;;4.80;1.50;;;;;;;;;;2087860;28;20220;-67
2023/12/27 12:51:36;;;;;;;6.32;1.88;;;;;;;;;;2091163;28;20775;-67
2023/12/27 12:52:38;;;;;;;5.82;1.23;;;;;;;;;;2086234;28;20184;-67
2023/12/27 12:53:39;;;;;;;4.25;1.55;;;;;;;;;;2087484;28;20254;-68
2023/12/27 12:54:42;;;;;;;7.03;1.60;;;;;;;;;;2090287;28;20239;-68
2023/12/27 12:55:49;;;;;;;3.08;1.20;;;;;;;;;;2090549;28;20291;-67
2023/12/27 12:56:51;;;;;;;5.72;1.35;;;;;;;;;;2087008;28;20234;-68
2023/12/27 12:57:52;;;;;;;3.35;1.30;;;;;;;;;;2087583;28;20203;-67
2023/12/27 12:58:55;;;;;;;3.97;1.20;;;;;;;;;;2086721;28;20247;-67
2023/12/27 12:59:56;;;;;;;1.73;1.02;;;;;;;;;;2086431;28;20196;-68
2023/12/27 13:00:58;;;;;;;2.47;1.08;;;;;;;;;;2087521;28;20223;-68
2023/12/27 13:02:00;;;;;;;4.57;1.45;;;;;;;;;;2087545;28;20655;-68
2023/12/27 13:03:03;;;;;;;1.50;0.95;;;;;;;;;;2090820;28;20832;-68
2023/12/27 13:04:05;;;;;;;7.32;1.40;;;;;;;;;;2090254;28;20674;-68
2023/12/27 13:05:10;;;;;;;3.53;1.30;;;;;;;;;;2086820;28;20203;-68
2023/12/27 13:06:15;;;;;;;6.13;1.50;;;;;;;;;;2086945;28;20547;-68
2023/12/27 13:07:17;;;;;;;3.20;1.85;;;;;;;;;;2086967;28;20205;-68
2023/12/27 13:08:18;;;;;;;3.50;1.27;;;;;;;;;;2087720;28;20299;-69
2023/12/27 13:09:19;;;;;;;3.05;1.42;;;;;;;;;;2089561;28;20291;-69
2023/12/27 13:10:22;;;;;;;5.13;1.48;;;;;;;;;;2088737;28;20224;-70
2023/12/27 13:11:23;;;;;;;5.10;1.10;;;;;;;;;;2087778;28;20249;-68
2023/12/27 13:12:25;;;;;;;2.17;1.10;;;;;;;;;;2088056;28;20642;-69
2023/12/27 13:13:29;;;;;;;2.40;1.10;;;;;;;;;;2090885;28;20203;-68
2023/12/27 13:14:39;;;;;;;3.92;1.13;;;;;;;;;;2091286;28;20721;-69
2023/12/27 13:15:42;;;;;;;3.08;1.23;;;;;;;;;;2081093;28;20357;-69
2023/12/27 13:16:44;;;;;;;2.03;1.10;;;;;;;;;;2084966;28;20197;-66
2023/12/27 13:17:46;;;;;;;1.90;1.00;;;;;;;;;;2087134;28;20201;-69
2023/12/27 13:18:49;;;;;;;8.07;1.23;;;;;;;;;;2088120;28;20200;-69
2023/12/27 13:19:52;;;;;;;3.58;1.58;;;;;;;;;;2088049;28;20218;-69
2023/12/27 13:20:53;;;;;;;3.50;1.50;;;;;;;;;;2087749;28;20189;-68
2023/12/27 13:21:56;;;;;;;9.60;3.40;;;;;;;;;;2087614;28;20193;-69
2023/12/27 13:22:57;;;;;;;7.70;2.33;;;;;;;;;;2087400;28;20247;-69
2023/12/27 13:23:59;;;;;;;5.53;1.38;;;;;;;;;;2087282;28;20287;-69
2023/12/27 13:25:00;;;;;;;8.68;1.55;;;;;;;;;;2086627;28;20848;-69
2023/12/27 13:26:02;;;;;;;2.70;1.70;;;;;;;;;;2086673;28;20689;-69
2023/12/27 13:27:04;;;;;;;3.10;1.25;;;;;;;;;;2087752;28;20193;-69
2023/12/27 13:28:05;;;;;;;5.85;1.88;;;;;;;;;;2087150;28;20192;-69
2023/12/27 13:29:12;;;;;;;3.78;1.58;;;;;;;;;;2087234;28;20201;-69
2023/12/27 13:30:14;;;;;;;3.20;1.40;;;;;;;;;;2090419;28;20275;-68
2023/12/27 13:31:15;;;;;;;5.00;1.65;;;;;;;;;;2088408;28;20824;-69
2023/12/27 13:32:17;;;;;;;13.65;2.50;;;;;;;;;;2086937;28;20193;-69
2023/12/27 13:33:22;;;;;;;7.32;2.55;;;;;;;;;;2095481;28;20589;-69
2023/12/27 13:34:24;;;;;;;9.75;4.32;;;;;;;;;;2098909;28;20191;-68
2023/12/27 13:35:28;;;;;;;4.47;1.95;;;;;;;;;;2092412;28;20223;-67
2023/12/27 13:36:30;;;;;;;3.60;1.50;;;;;;;;;;2093341;28;20230;-67
2023/12/27 13:37:31;;;;;;;6.47;1.73;;;;;;;;;;2092628;28;20656;-67
2023/12/27 13:38:33;;;;;;;4.05;1.85;;;;;;;;;;2094269;28;20651;-67
2023/12/27 13:39:34;;;;;;;2.90;1.30;;;;;;;;;;2092923;28;20215;-67
2023/12/27 13:40:36;;;;;;;3.13;1.25;;;;;;;;;;2089898;28;20598;-67
2023/12/27 13:41:38;;;;;;;2.60;1.25;;;;;;;;;;2091900;28;20204;-67
2023/12/27 13:42:39;;;;;;;3.90;2.00;;;;;;;;;;2093493;28;20193;-67
2023/12/27 13:43:41;;;;;;;2.28;1.23;;;;;;;;;;2095533;28;20200;-67
2023/12/27 13:44:42;;;;;;;5.43;1.65;;;;;;;;;;2093869;28;20694;-67
2023/12/27 13:45:54;;;;;;;1.65;1.20;;;;;;;;;;2090264;28;20220;-67
2023/12/27 13:47:01;;;;;;;4.35;1.73;;;;;;;;;;2099484;28;20565;-66
2023/12/27 13:48:03;;;;;;;2.90;1.50;;;;;;;;;;2092250;28;20227;-68
2023/12/27 13:49:05;;;;;;;4.63;1.73;;;;;;;;;;2091664;28;20254;-68
2023/12/27 13:50:06;;;;;;;3.70;1.77;;;;;;;;;;2091311;28;20341;-68
2023/12/27 13:51:09;;;;;;;9.02;2.47;;;;;;;;;;2093902;28;20200;-68
2023/12/27 13:52:17;;;;;;;4.43;1.45;;;;;;;;;;2095467;28;20196;-68
2023/12/27 13:53:21;;;;;;;3.85;1.60;;;;;;;;;;2096466;28;20192;-70
2023/12/27 13:54:22;;;;;;;5.00;2.03;;;;;;;;;;2095771;28;20192;-69
2023/12/27 13:55:32;;;;;;;5.30;1.80;;;;;;;;;;2087584;28;20557;-69
2023/12/27 13:56:35;;;;;;;3.97;1.30;;;;;;;;;;2089158;28;20199;-69
2023/12/27 13:57:37;;;;;;;3.90;1.70;;;;;;;;;;2088620;28;20289;-69
2023/12/27 13:58:40;;;;;;;7.85;1.60;;;;;;;;;;2088966;28;20559;-69
2023/12/27 13:59:41;;;;;;;2.53;1.50;;;;;;;;;;2088493;28;20201;-70
2023/12/27 14:00:43;;;;;;;6.40;1.77;;;;;;;;;;2087517;28;20223;-69
2023/12/27 14:01:45;;;;;;;2.90;1.30;;;;;;;;;;2088068;28;20196;-70
2023/12/27 14:02:49;;;;;;;3.95;1.58;;;;;;;;;;2088198;28;20405;-70
2023/12/27 14:03:50;;;;;;;8.23;1.67;;;;;;;;;;2088922;28;20200;-70
2023/12/27 14:04:52;;;;;;;5.80;1.60;;;;;;;;;;2091130;28;20204;-69
2023/12/27 14:05:53;;;;;;;8.38;2.63;;;;;;;;;;2092483;28;20679;-69
2023/12/27 14:06:55;;;;;;;6.43;1.90;;;;;;;;;;2088620;28;20196;-70
2023/12/27 14:07:56;;;;;;;4.60;1.50;;;;;;;;;;2088992;28;20625;-70
2023/12/27 14:08:58;;;;;;;4.40;1.40;;;;;;;;;;2092893;28;20647;-70
2023/12/27 14:09:59;;;;;;;3.05;1.65;;;;;;;;;;2091113;28;20286;-70
2023/12/27 14:11:01;;;;;;;5.47;1.63;;;;;;;;;;2088011;28;20766;-70
2023/12/27 14:12:02;;;;;;;3.95;1.55;;;;;;;;;;2088863;28;20751;-70
2023/12/27 14:13:04;;;;;;;7.40;1.85;;;;;;;;;;2088911;28;20678;-70
2023/12/27 14:14:05;;;;;;;3.15;1.33;;;;;;;;;;2088740;28;20200;-70
2023/12/27 14:15:07;;;;;;;2.72;1.38;;;;;;;;;;2087467;28;20299;-69
2023/12/27 14:16:08;;;;;;;5.00;1.88;;;;;;;;;;2089058;28;20193;-70
2023/12/27 14:17:10;;;;;;;4.15;2.00;;;;;;;;;;2088913;28;20196;-70
2023/12/27 14:18:11;;;;;;;5.45;1.60;;;;;;;;;;2088567;28;20262;-70
2023/12/27 14:19:18;;;;;;;2.08;1.33;;;;;;;;;;2088665;28;20192;-70
2023/12/27 14:20:19;;;;;;;4.88;2.20;;;;;;;;;;2086765;28;20239;-70
2023/12/27 14:21:21;;;;;;;4.72;1.10;;;;;;;;;;2088896;28;20224;-70
2023/12/27 14:22:22;;;;;;;5.03;1.83;;;;;;;;;;2088886;28;20227;-70
2023/12/27 14:23:24;;;;;;;3.00;1.40;;;;;;;;;;2088631;28;20253;-70
2023/12/27 14:24:25;;;;;;;3.55;1.67;;;;;;;;;;2092906;28;20722;-70
2023/12/27 14:25:30;;;;;;;4.25;1.63;;;;;;;;;;2090570;28;20220;-70
2023/12/27 14:26:31;;;;;;;3.10;1.65;;;;;;;;;;2088172;28;20291;-70
2023/12/27 14:27:33;;;;;;;5.95;1.70;;;;;;;;;;2088681;28;20200;-70
2023/12/27 14:28:36;;;;;;;5.78;1.75;;;;;;;;;;2088790;28;20293;-70
2023/12/27 14:29:37;;;;;;;4.18;1.98;;;;;;;;;;2083091;28;20189;-70
2023/12/27 14:30:39;;;;;;;4.85;1.70;;;;;;;;;;2080776;28;20631;-70
2023/12/27 14:31:40;;;;;;;5.40;1.30;;;;;;;;;;2088352;28;20200;-70
2023/12/27 14:32:42;;;;;;;4.07;1.77;;;;;;;;;;2088748;28;20759;-70
2023/12/27 14:33:44;;;;;;;3.03;1.65;;;;;;;;;;2090854;28;20189;-69
2023/12/27 14:34:45;;;;;;;8.57;1.85;;;;;;;;;;2092441;28;20200;-70
2023/12/27 14:35:47;;;;;;;5.32;2.50;;;;;;;;;;2091309;28;20220;-70
2023/12/27 14:36:48;;;;;;;5.03;2.20;;;;;;;;;;2090289;28;20196;-70
2023/12/27 14:37:50;;;;;;;4.35;1.65;;;;;;;;;;2088717;28;20227;-70
2023/12/27 14:38:57;;;;;;;4.65;1.45;;;;;;;;;;2088602;28;20246;-70
2023/12/27 14:39:59;;;;;;;5.47;1.25;;;;;;;;;;2090077;28;20192;-69
2023/12/27 14:41:01;;;;;;;3.58;1.45;;;;;;;;;;2078434;28;20560;-70
2023/12/27 14:42:03;;;;;;;4.93;1.48;;;;;;;;;;2083521;28;20232;-70
2023/12/27 14:43:05;;;;;;;3.92;1.55;;;;;;;;;;2087946;28;20200;-70
2023/12/27 14:44:06;;;;;;;6.35;1.50;;;;;;;;;;2087961;28;20247;-69
2023/12/27 14:45:14;;;;;;;4.78;1.73;;;;;;;;;;2087215;28;20319;-69
2023/12/27 14:46:16;;;;;;;8.48;1.75;;;;;;;;;;2087883;28;20676;-70
2023/12/27 14:47:18;;;;;;;2.58;1.33;;;;;;;;;;2088536;28;20200;-69
2023/12/27 14:48:19;;;;;;;6.38;2.17;;;;;;;;;;2088147;28;20192;-69
2023/12/27 14:49:21;;;;;;;5.03;1.60;;;;;;;;;;2088524;28;20196;-70
2023/12/27 14:50:22;;;;;;;5.53;1.40;;;;;;;;;;2087266;28;20220;-69
2023/12/27 14:51:24;;;;;;;2.95;1.45;;;;;;;;;;2088490;28;20702;-70
2023/12/27 14:52:25;;;;;;;5.50;1.42;;;;;;;;;;2087901;28;20280;-69
2023/12/27 14:53:27;;;;;;;4.25;1.30;;;;;;;;;;2087638;28;20702;-70
2023/12/27 14:54:29;;;;;;;5.10;1.50;;;;;;;;;;2088389;28;20662;-70
2023/12/27 14:55:31;;;;;;;3.97;1.58;;;;;;;;;;2087899;28;20221;-69
2023/12/27 14:56:32;;;;;;;3.40;1.45;;;;;;;;;;2088382;28;20286;-70